sensor_id;sensor_type;location;lat;lon;timestamp;temperature;humidity
15259;DHT22;34462;51.368;12.364;2023-12-04T00:00:04;-2.50;99.90
15259;DHT22;34462;51.368;12.364;2023-12-04T00:02:34;-2.50;99.90
15259;DHT22;34462;51.368;12.364;2023-12-04T00:05:02;-2.50;99.90
15259;DHT22;34462;51.368;12.364;2023-12-04T00:07:31;-2.60;99.90
15259;DHT22;34462;51.368;12.364;2023-12-04T00:10:01;-2.60;99.90
15259;DHT22;34462;51.368;12.364;2023-12-04T00:12:29;-2.60;99.90
15259;DHT22;34462;51.368;12.364;2023-12-04T00:14:57;-2.60;99.90
15259;DHT22;34462;51.368;12.364;2023-12-04T00:17:25;-2.50;99.90
15259;DHT22;34462;51.368;12.364;2023-12-04T00:19:53;-2.50;99.90
15259;DHT22;34462;51.368;12.364;2023-12-04T00:22:22;-2.50;99.90
15259;DHT22;34462;51.368;12.364;2023-12-04T00:24:51;-2.60;99.90
15259;DHT22;34462;51.368;12.364;2023-12-04T00:27:21;-2.60;99.90
15259;DHT22;34462;51.368;12.364;2023-12-04T00:29:53;-2.60;99.90
15259;DHT22;34462;51.368;12.364;2023-12-04T00:32:21;-2.60;99.90
15259;DHT22;34462;51.368;12.364;2023-12-04T00:34:50;-2.60;99.90
15259;DHT22;34462;51.368;12.364;2023-12-04T00:37:18;-2.70;99.90
15259;DHT22;34462;51.368;12.364;2023-12-04T00:39:46;-2.60;99.90
15259;DHT22;34462;51.368;12.364;2023-12-04T00:42:15;-2.60;99.90
15259;DHT22;34462;51.368;12.364;2023-12-04T00:44:44;-2.60;99.90
15259;DHT22;34462;51.368;12.364;2023-12-04T00:47:12;-2.60;99.90
15259;DHT22;34462;51.368;12.364;2023-12-04T00:49:40;-2.60;99.90
15259;DHT22;34462;51.368;12.364;2023-12-04T00:52:09;-2.60;99.90
15259;DHT22;34462;51.368;12.364;2023-12-04T00:54:39;-2.50;99.90
15259;DHT22;34462;51.368;12.364;2023-12-04T00:57:08;-2.50;99.90
15259;DHT22;34462;51.368;12.364;2023-12-04T00:59:36;-2.50;99.90
15259;DHT22;34462;51.368;12.364;2023-12-04T01:02:07;-2.40;99.90
15259;DHT22;34462;51.368;12.364;2023-12-04T01:04:35;-2.40;99.90
15259;DHT22;34462;51.368;12.364;2023-12-04T01:07:03;-2.50;99.90
15259;DHT22;34462;51.368;12.364;2023-12-04T01:09:31;-2.40;99.90
15259;DHT22;34462;51.368;12.364;2023-12-04T01:12:02;-2.40;99.90
15259;DHT22;34462;51.368;12.364;2023-12-04T01:14:31;-2.40;99.90
15259;DHT22;34462;51.368;12.364;2023-12-04T01:16:59;-2.40;99.90
15259;DHT22;34462;51.368;12.364;2023-12-04T01:19:29;-2.50;99.90
15259;DHT22;34462;51.368;12.364;2023-12-04T01:21:57;-2.40;99.90
15259;DHT22;34462;51.368;12.364;2023-12-04T01:24:25;-2.40;99.90
15259;DHT22;34462;51.368;12.364;2023-12-04T01:26:54;-2.40;99.90
15259;DHT22;34462;51.368;12.364;2023-12-04T01:29:23;-2.30;99.90
15259;DHT22;34462;51.368;12.364;2023-12-04T01:31:51;-2.30;99.90
15259;DHT22;34462;51.368;12.364;2023-12-04T01:34:19;-2.30;99.90
15259;DHT22;34462;51.368;12.364;2023-12-04T01:36:49;-2.30;99.90
15259;DHT22;34462;51.368;12.364;2023-12-04T01:39:17;-2.30;99.90
15259;DHT22;34462;51.368;12.364;2023-12-04T01:41:45;-2.20;99.90
15259;DHT22;34462;51.368;12.364;2023-12-04T01:44:13;-2.20;99.90
15259;DHT22;34462;51.368;12.364;2023-12-04T01:46:42;-2.20;99.90
15259;DHT22;34462;51.368;12.364;2023-12-04T01:49:10;-2.20;99.90
15259;DHT22;34462;51.368;12.364;2023-12-04T01:51:39;-2.20;99.90
15259;DHT22;34462;51.368;12.364;2023-12-04T01:54:09;-2.10;99.90
15259;DHT22;34462;51.368;12.364;2023-12-04T01:56:37;-2.00;99.90
15259;DHT22;34462;51.368;12.364;2023-12-04T01:59:06;-2.10;99.90
15259;DHT22;34462;51.368;12.364;2023-12-04T02:01:34;-2.10;99.90
15259;DHT22;34462;51.368;12.364;2023-12-04T02:04:04;-2.10;99.90
15259;DHT22;34462;51.368;12.364;2023-12-04T02:06:33;-2.20;99.90
15259;DHT22;34462;51.368;12.364;2023-12-04T02:09:02;-2.10;99.90
15259;DHT22;34462;51.368;12.364;2023-12-04T02:11:34;-2.10;99.90
15259;DHT22;34462;51.368;12.364;2023-12-04T02:14:03;-2.10;99.90
15259;DHT22;34462;51.368;12.364;2023-12-04T02:16:32;-2.10;99.90
15259;DHT22;34462;51.368;12.364;2023-12-04T02:19:07;-2.10;99.90
15259;DHT22;34462;51.368;12.364;2023-12-04T02:21:36;-2.00;99.90
15259;DHT22;34462;51.368;12.364;2023-12-04T02:24:05;-2.00;99.90
15259;DHT22;34462;51.368;12.364;2023-12-04T02:26:38;-2.00;99.90
15259;DHT22;34462;51.368;12.364;2023-12-04T02:29:15;-2.00;99.90
15259;DHT22;34462;51.368;12.364;2023-12-04T02:31:51;-2.00;99.90
15259;DHT22;34462;51.368;12.364;2023-12-04T02:34:24;-2.00;99.90
15259;DHT22;34462;51.368;12.364;2023-12-04T02:36:53;-2.00;99.90
15259;DHT22;34462;51.368;12.364;2023-12-04T02:39:23;-2.10;99.90
15259;DHT22;34462;51.368;12.364;2023-12-04T02:41:52;-2.10;99.90
15259;DHT22;34462;51.368;12.364;2023-12-04T02:44:20;-2.10;99.90
15259;DHT22;34462;51.368;12.364;2023-12-04T02:46:48;-2.10;99.90
15259;DHT22;34462;51.368;12.364;2023-12-04T02:49:16;-2.10;99.90
15259;DHT22;34462;51.368;12.364;2023-12-04T02:51:44;-2.00;99.90
15259;DHT22;34462;51.368;12.364;2023-12-04T02:54:13;-2.10;99.90
15259;DHT22;34462;51.368;12.364;2023-12-04T02:56:42;-2.10;99.90
15259;DHT22;34462;51.368;12.364;2023-12-04T02:59:10;-2.10;99.90
15259;DHT22;34462;51.368;12.364;2023-12-04T03:01:38;-2.10;99.90
15259;DHT22;34462;51.368;12.364;2023-12-04T03:04:06;-2.10;99.90
15259;DHT22;34462;51.368;12.364;2023-12-04T03:06:35;-2.10;99.90
15259;DHT22;34462;51.368;12.364;2023-12-04T03:09:03;-2.10;99.90
15259;DHT22;34462;51.368;12.364;2023-12-04T03:11:31;-2.10;99.90
15259;DHT22;34462;51.368;12.364;2023-12-04T03:14:01;-2.00;99.90
15259;DHT22;34462;51.368;12.364;2023-12-04T03:16:29;-2.10;99.90
15259;DHT22;34462;51.368;12.364;2023-12-04T03:18:57;-2.10;99.90
15259;DHT22;34462;51.368;12.364;2023-12-04T03:21:26;-2.00;99.90
15259;DHT22;34462;51.368;12.364;2023-12-04T03:23:55;-2.00;99.90
15259;DHT22;34462;51.368;12.364;2023-12-04T03:26:23;-1.90;99.90
15259;DHT22;34462;51.368;12.364;2023-12-04T03:28:51;-2.00;99.90
15259;DHT22;34462;51.368;12.364;2023-12-04T03:31:21;-2.00;99.90
15259;DHT22;34462;51.368;12.364;2023-12-04T03:33:51;-2.00;99.90
15259;DHT22;34462;51.368;12.364;2023-12-04T03:36:19;-2.00;99.90
15259;DHT22;34462;51.368;12.364;2023-12-04T03:38:47;-2.10;99.90
15259;DHT22;34462;51.368;12.364;2023-12-04T03:41:16;-2.00;99.90
15259;DHT22;34462;51.368;12.364;2023-12-04T03:43:44;-2.00;99.90
15259;DHT22;34462;51.368;12.364;2023-12-04T03:46:12;-2.00;99.90
15259;DHT22;34462;51.368;12.364;2023-12-04T03:48:42;-2.00;99.90
15259;DHT22;34462;51.368;12.364;2023-12-04T03:51:10;-1.90;99.90
15259;DHT22;34462;51.368;12.364;2023-12-04T03:53:39;-1.90;99.90
15259;DHT22;34462;51.368;12.364;2023-12-04T03:56:08;-1.80;99.90
15259;DHT22;34462;51.368;12.364;2023-12-04T03:58:38;-1.90;99.90
15259;DHT22;34462;51.368;12.364;2023-12-04T04:01:06;-1.80;99.90
15259;DHT22;34462;51.368;12.364;2023-12-04T04:03:35;-1.80;99.90
15259;DHT22;34462;51.368;12.364;2023-12-04T04:06:05;-1.90;99.90
15259;DHT22;34462;51.368;12.364;2023-12-04T04:08:34;-1.80;99.90
15259;DHT22;34462;51.368;12.364;2023-12-04T04:11:02;-1.80;99.90
15259;DHT22;34462;51.368;12.364;2023-12-04T04:13:31;-1.80;99.90
15259;DHT22;34462;51.368;12.364;2023-12-04T04:15:59;-1.70;99.90
15259;DHT22;34462;51.368;12.364;2023-12-04T04:18:27;-1.80;99.90
15259;DHT22;34462;51.368;12.364;2023-12-04T04:20:56;-1.80;99.90
15259;DHT22;34462;51.368;12.364;2023-12-04T04:23:25;-1.70;99.90
15259;DHT22;34462;51.368;12.364;2023-12-04T04:25:53;-1.70;99.90
15259;DHT22;34462;51.368;12.364;2023-12-04T04:28:21;-1.60;99.90
15259;DHT22;34462;51.368;12.364;2023-12-04T04:30:50;-1.70;99.90
15259;DHT22;34462;51.368;12.364;2023-12-04T04:33:18;-1.70;99.90
15259;DHT22;34462;51.368;12.364;2023-12-04T04:35:47;-1.70;99.90
15259;DHT22;34462;51.368;12.364;2023-12-04T04:38:15;-1.70;99.90
15259;DHT22;34462;51.368;12.364;2023-12-04T04:40:45;-1.70;99.90
15259;DHT22;34462;51.368;12.364;2023-12-04T04:43:13;-1.70;99.90
15259;DHT22;34462;51.368;12.364;2023-12-04T04:45:41;-1.80;99.90
15259;DHT22;34462;51.368;12.364;2023-12-04T04:48:11;-1.70;99.90
15259;DHT22;34462;51.368;12.364;2023-12-04T04:50:40;-1.60;99.90
15259;DHT22;34462;51.368;12.364;2023-12-04T04:53:08;-1.50;99.90
15259;DHT22;34462;51.368;12.364;2023-12-04T04:55:36;-1.50;99.90
15259;DHT22;34462;51.368;12.364;2023-12-04T04:58:16;-1.60;99.90
15259;DHT22;34462;51.368;12.364;2023-12-04T05:00:45;-1.60;99.90
15259;DHT22;34462;51.368;12.364;2023-12-04T05:03:14;-1.60;99.90
15259;DHT22;34462;51.368;12.364;2023-12-04T05:05:43;-1.60;99.90
15259;DHT22;34462;51.368;12.364;2023-12-04T05:08:11;-1.60;99.90
15259;DHT22;34462;51.368;12.364;2023-12-04T05:10:39;-1.70;99.90
15259;DHT22;34462;51.368;12.364;2023-12-04T05:13:08;-1.70;99.90
15259;DHT22;34462;51.368;12.364;2023-12-04T05:15:37;-1.80;99.90
15259;DHT22;34462;51.368;12.364;2023-12-04T05:18:05;-1.70;99.90
15259;DHT22;34462;51.368;12.364;2023-12-04T05:20:34;-1.70;99.90
15259;DHT22;34462;51.368;12.364;2023-12-04T05:23:02;-1.70;99.90
15259;DHT22;34462;51.368;12.364;2023-12-04T05:25:30;-1.70;99.90
15259;DHT22;34462;51.368;12.364;2023-12-04T05:28:10;-1.60;99.90
15259;DHT22;34462;51.368;12.364;2023-12-04T05:30:39;-1.50;99.90
15259;DHT22;34462;51.368;12.364;2023-12-04T05:33:07;-1.50;99.90
15259;DHT22;34462;51.368;12.364;2023-12-04T05:35:36;-1.50;99.90
15259;DHT22;34462;51.368;12.364;2023-12-04T05:38:04;-1.40;99.90
15259;DHT22;34462;51.368;12.364;2023-12-04T05:40:34;-1.50;99.90
15259;DHT22;34462;51.368;12.364;2023-12-04T05:43:02;-1.50;99.90
15259;DHT22;34462;51.368;12.364;2023-12-04T05:45:30;-1.50;99.90
15259;DHT22;34462;51.368;12.364;2023-12-04T05:48:00;-1.50;99.90
15259;DHT22;34462;51.368;12.364;2023-12-04T05:50:28;-1.50;99.90
15259;DHT22;34462;51.368;12.364;2023-12-04T05:52:56;-1.50;99.90
15259;DHT22;34462;51.368;12.364;2023-12-04T05:55:25;-1.50;99.90
15259;DHT22;34462;51.368;12.364;2023-12-04T05:57:53;-1.50;99.90
15259;DHT22;34462;51.368;12.364;2023-12-04T06:00:22;-1.40;99.90
15259;DHT22;34462;51.368;12.364;2023-12-04T06:02:54;-1.30;99.90
15259;DHT22;34462;51.368;12.364;2023-12-04T06:05:24;-1.30;99.90
15259;DHT22;34462;51.368;12.364;2023-12-04T06:07:52;-1.20;99.90
15259;DHT22;34462;51.368;12.364;2023-12-04T06:10:21;-1.20;99.90
15259;DHT22;34462;51.368;12.364;2023-12-04T06:12:49;-1.20;99.90
15259;DHT22;34462;51.368;12.364;2023-12-04T06:15:17;-1.20;99.90
15259;DHT22;34462;51.368;12.364;2023-12-04T06:17:45;-1.10;99.90
15259;DHT22;34462;51.368;12.364;2023-12-04T06:20:14;-1.10;99.90
15259;DHT22;34462;51.368;12.364;2023-12-04T06:22:44;-1.20;99.90
15259;DHT22;34462;51.368;12.364;2023-12-04T06:25:14;-1.30;99.90
15259;DHT22;34462;51.368;12.364;2023-12-04T06:27:43;-1.30;99.90
15259;DHT22;34462;51.368;12.364;2023-12-04T06:30:13;-1.30;99.90
15259;DHT22;34462;51.368;12.364;2023-12-04T06:32:42;-1.30;99.90
15259;DHT22;34462;51.368;12.364;2023-12-04T06:35:12;-1.30;99.90
15259;DHT22;34462;51.368;12.364;2023-12-04T06:37:48;-1.40;99.90
15259;DHT22;34462;51.368;12.364;2023-12-04T06:40:19;-1.50;99.90
15259;DHT22;34462;51.368;12.364;2023-12-04T06:42:48;-1.50;99.90
15259;DHT22;34462;51.368;12.364;2023-12-04T06:45:17;-1.60;99.90
15259;DHT22;34462;51.368;12.364;2023-12-04T06:47:50;-1.50;99.90
15259;DHT22;34462;51.368;12.364;2023-12-04T06:50:19;-1.60;99.90
15259;DHT22;34462;51.368;12.364;2023-12-04T06:52:48;-1.60;99.90
15259;DHT22;34462;51.368;12.364;2023-12-04T06:55:16;-1.50;99.90
15259;DHT22;34462;51.368;12.364;2023-12-04T06:57:45;-1.50;99.90
15259;DHT22;34462;51.368;12.364;2023-12-04T07:00:14;-1.50;99.90
15259;DHT22;34462;51.368;12.364;2023-12-04T07:02:48;-1.50;99.90
15259;DHT22;34462;51.368;12.364;2023-12-04T07:05:18;-1.50;99.90
15259;DHT22;34462;51.368;12.364;2023-12-04T07:07:49;-1.50;99.90
15259;DHT22;34462;51.368;12.364;2023-12-04T07:10:17;-1.50;99.90
15259;DHT22;34462;51.368;12.364;2023-12-04T07:12:45;-1.60;99.90
15259;DHT22;34462;51.368;12.364;2023-12-04T07:15:13;-1.60;99.90
15259;DHT22;34462;51.368;12.364;2023-12-04T07:17:42;-1.60;99.90
15259;DHT22;34462;51.368;12.364;2023-12-04T07:20:10;-1.60;99.90
15259;DHT22;34462;51.368;12.364;2023-12-04T07:22:39;-1.70;99.90
15259;DHT22;34462;51.368;12.364;2023-12-04T07:25:09;-1.70;99.90
15259;DHT22;34462;51.368;12.364;2023-12-04T07:27:37;-1.80;99.90
15259;DHT22;34462;51.368;12.364;2023-12-04T07:30:06;-1.80;99.90
15259;DHT22;34462;51.368;12.364;2023-12-04T07:32:35;-1.80;99.90
15259;DHT22;34462;51.368;12.364;2023-12-04T07:35:04;-1.80;99.90
15259;DHT22;34462;51.368;12.364;2023-12-04T07:37:33;-1.70;99.90
15259;DHT22;34462;51.368;12.364;2023-12-04T07:40:02;-1.70;99.90
15259;DHT22;34462;51.368;12.364;2023-12-04T07:42:33;-1.50;99.90
15259;DHT22;34462;51.368;12.364;2023-12-04T07:45:02;-1.50;99.90
15259;DHT22;34462;51.368;12.364;2023-12-04T07:47:31;-1.40;99.90
15259;DHT22;34462;51.368;12.364;2023-12-04T07:49:59;-1.30;99.90
15259;DHT22;34462;51.368;12.364;2023-12-04T07:52:27;-1.20;99.90
15259;DHT22;34462;51.368;12.364;2023-12-04T07:54:56;-1.10;99.90
15259;DHT22;34462;51.368;12.364;2023-12-04T07:57:24;-1.10;99.90
15259;DHT22;34462;51.368;12.364;2023-12-04T07:59:54;-1.00;99.90
15259;DHT22;34462;51.368;12.364;2023-12-04T08:02:22;-0.90;99.90
15259;DHT22;34462;51.368;12.364;2023-12-04T08:04:50;-0.90;99.90
15259;DHT22;34462;51.368;12.364;2023-12-04T08:07:19;-0.80;99.90
15259;DHT22;34462;51.368;12.364;2023-12-04T08:09:47;-0.70;99.90
15259;DHT22;34462;51.368;12.364;2023-12-04T08:12:15;-0.70;99.90
15259;DHT22;34462;51.368;12.364;2023-12-04T08:14:43;-0.60;99.90
15259;DHT22;34462;51.368;12.364;2023-12-04T08:17:14;-0.60;99.90
15259;DHT22;34462;51.368;12.364;2023-12-04T08:19:43;-0.50;99.90
15259;DHT22;34462;51.368;12.364;2023-12-04T08:22:14;-0.50;99.90
15259;DHT22;34462;51.368;12.364;2023-12-04T08:24:42;-0.40;99.90
15259;DHT22;34462;51.368;12.364;2023-12-04T08:27:11;-0.40;99.90
15259;DHT22;34462;51.368;12.364;2023-12-04T08:29:39;-0.30;99.90
15259;DHT22;34462;51.368;12.364;2023-12-04T08:32:08;-0.30;99.90
15259;DHT22;34462;51.368;12.364;2023-12-04T08:34:37;-0.30;99.90
15259;DHT22;34462;51.368;12.364;2023-12-04T08:37:05;-0.20;99.90
15259;DHT22;34462;51.368;12.364;2023-12-04T08:39:34;-0.20;99.90
15259;DHT22;34462;51.368;12.364;2023-12-04T08:42:02;-0.20;99.90
15259;DHT22;34462;51.368;12.364;2023-12-04T08:44:37;-0.20;99.90
15259;DHT22;34462;51.368;12.364;2023-12-04T08:47:06;-0.30;99.90
15259;DHT22;34462;51.368;12.364;2023-12-04T08:49:35;-0.20;99.90
15259;DHT22;34462;51.368;12.364;2023-12-04T08:52:14;-0.20;99.90
15259;DHT22;34462;51.368;12.364;2023-12-04T08:54:43;-0.20;99.90
15259;DHT22;34462;51.368;12.364;2023-12-04T08:57:11;-0.10;99.90
15259;DHT22;34462;51.368;12.364;2023-12-04T08:59:39;-0.10;99.90
15259;DHT22;34462;51.368;12.364;2023-12-04T09:02:07;0.00;99.90
15259;DHT22;34462;51.368;12.364;2023-12-04T09:04:40;0.10;99.90
15259;DHT22;34462;51.368;12.364;2023-12-04T09:07:09;0.20;99.90
15259;DHT22;34462;51.368;12.364;2023-12-04T09:09:57;0.20;99.90
15259;DHT22;34462;51.368;12.364;2023-12-04T09:12:29;0.30;99.90
15259;DHT22;34462;51.368;12.364;2023-12-04T09:14:57;0.40;99.90
15259;DHT22;34462;51.368;12.364;2023-12-04T09:17:25;0.40;99.90
15259;DHT22;34462;51.368;12.364;2023-12-04T09:20:04;0.40;99.90
15259;DHT22;34462;51.368;12.364;2023-12-04T09:22:33;0.50;99.90
15259;DHT22;34462;51.368;12.364;2023-12-04T09:25:18;0.50;99.90
15259;DHT22;34462;51.368;12.364;2023-12-04T09:27:46;0.50;99.90
15259;DHT22;34462;51.368;12.364;2023-12-04T09:30:14;0.40;99.90
15259;DHT22;34462;51.368;12.364;2023-12-04T09:32:43;0.50;99.90
15259;DHT22;34462;51.368;12.364;2023-12-04T09:35:12;0.70;99.90
15259;DHT22;34462;51.368;12.364;2023-12-04T09:37:42;0.70;99.90
15259;DHT22;34462;51.368;12.364;2023-12-04T09:40:11;0.80;99.90
15259;DHT22;34462;51.368;12.364;2023-12-04T09:42:39;0.80;99.90
15259;DHT22;34462;51.368;12.364;2023-12-04T09:45:09;0.80;99.90
15259;DHT22;34462;51.368;12.364;2023-12-04T09:47:37;0.80;99.90
15259;DHT22;34462;51.368;12.364;2023-12-04T09:50:07;0.80;99.90
15259;DHT22;34462;51.368;12.364;2023-12-04T09:52:38;0.90;99.90
15259;DHT22;34462;51.368;12.364;2023-12-04T09:55:07;1.00;99.90
15259;DHT22;34462;51.368;12.364;2023-12-04T09:57:35;1.10;99.90
15259;DHT22;34462;51.368;12.364;2023-12-04T10:00:04;1.20;99.90
15259;DHT22;34462;51.368;12.364;2023-12-04T10:02:34;1.20;99.90
15259;DHT22;34462;51.368;12.364;2023-12-04T10:05:03;1.30;99.90
15259;DHT22;34462;51.368;12.364;2023-12-04T10:07:33;1.40;99.90
15259;DHT22;34462;51.368;12.364;2023-12-04T10:10:03;1.40;99.90
15259;DHT22;34462;51.368;12.364;2023-12-04T10:12:32;1.40;99.90
15259;DHT22;34462;51.368;12.364;2023-12-04T10:15:05;1.60;99.90
15259;DHT22;34462;51.368;12.364;2023-12-04T10:17:35;1.70;99.90
15259;DHT22;34462;51.368;12.364;2023-12-04T10:20:07;1.80;99.90
15259;DHT22;34462;51.368;12.364;2023-12-04T10:22:39;1.90;99.90
15259;DHT22;34462;51.368;12.364;2023-12-04T10:25:21;2.00;99.90
15259;DHT22;34462;51.368;12.364;2023-12-04T10:27:51;2.20;99.90
15259;DHT22;34462;51.368;12.364;2023-12-04T10:30:24;2.30;99.90
15259;DHT22;34462;51.368;12.364;2023-12-04T10:32:57;2.40;99.90
15259;DHT22;34462;51.368;12.364;2023-12-04T10:35:29;2.40;99.90
15259;DHT22;34462;51.368;12.364;2023-12-04T10:37:59;2.40;99.90
15259;DHT22;34462;51.368;12.364;2023-12-04T10:40:30;2.20;99.90
15259;DHT22;34462;51.368;12.364;2023-12-04T10:43:14;2.30;99.90
15259;DHT22;34462;51.368;12.364;2023-12-04T10:45:45;2.20;99.90
15259;DHT22;34462;51.368;12.364;2023-12-04T10:48:15;2.30;99.90
15259;DHT22;34462;51.368;12.364;2023-12-04T10:50:45;2.10;99.90
15259;DHT22;34462;51.368;12.364;2023-12-04T10:53:15;2.00;99.90
15259;DHT22;34462;51.368;12.364;2023-12-04T10:55:49;2.10;99.90
15259;DHT22;34462;51.368;12.364;2023-12-04T10:58:25;2.00;99.90
15259;DHT22;34462;51.368;12.364;2023-12-04T11:00:55;1.90;99.90
15259;DHT22;34462;51.368;12.364;2023-12-04T11:03:34;1.90;99.90
15259;DHT22;34462;51.368;12.364;2023-12-04T11:06:08;1.80;99.90
15259;DHT22;34462;51.368;12.364;2023-12-04T11:08:41;1.70;99.90
15259;DHT22;34462;51.368;12.364;2023-12-04T11:11:14;1.80;99.90
15259;DHT22;34462;51.368;12.364;2023-12-04T11:13:48;1.90;99.90
15259;DHT22;34462;51.368;12.364;2023-12-04T11:16:23;2.00;99.90
15259;DHT22;34462;51.368;12.364;2023-12-04T11:19:00;2.00;99.90
15259;DHT22;34462;51.368;12.364;2023-12-04T11:21:32;2.10;99.90
15259;DHT22;34462;51.368;12.364;2023-12-04T11:24:02;2.00;99.90
15259;DHT22;34462;51.368;12.364;2023-12-04T11:26:36;2.00;99.90
15259;DHT22;34462;51.368;12.364;2023-12-04T11:29:07;2.10;99.90
15259;DHT22;34462;51.368;12.364;2023-12-04T11:31:37;2.00;99.90
15259;DHT22;34462;51.368;12.364;2023-12-04T11:34:08;1.90;99.90
15259;DHT22;34462;51.368;12.364;2023-12-04T11:36:38;1.90;99.90
15259;DHT22;34462;51.368;12.364;2023-12-04T11:39:09;1.90;99.90
15259;DHT22;34462;51.368;12.364;2023-12-04T11:41:40;1.80;99.90
15259;DHT22;34462;51.368;12.364;2023-12-04T11:44:12;2.00;99.90
15259;DHT22;34462;51.368;12.364;2023-12-04T11:46:55;2.00;99.90
15259;DHT22;34462;51.368;12.364;2023-12-04T11:49:27;2.00;99.90
15259;DHT22;34462;51.368;12.364;2023-12-04T11:51:58;2.00;99.90
15259;DHT22;34462;51.368;12.364;2023-12-04T11:54:27;2.00;99.90
15259;DHT22;34462;51.368;12.364;2023-12-04T11:57:20;1.80;99.90
15259;DHT22;34462;51.368;12.364;2023-12-04T11:59:51;1.80;99.90
15259;DHT22;34462;51.368;12.364;2023-12-04T12:02:20;1.70;99.90
15259;DHT22;34462;51.368;12.364;2023-12-04T12:04:49;1.70;99.90
15259;DHT22;34462;51.368;12.364;2023-12-04T12:07:18;1.70;99.90
15259;DHT22;34462;51.368;12.364;2023-12-04T12:09:46;1.70;99.90
15259;DHT22;34462;51.368;12.364;2023-12-04T12:12:17;1.70;99.90
15259;DHT22;34462;51.368;12.364;2023-12-04T12:14:47;1.70;99.90
15259;DHT22;34462;51.368;12.364;2023-12-04T12:17:15;1.70;99.90
15259;DHT22;34462;51.368;12.364;2023-12-04T12:19:43;1.80;99.90
15259;DHT22;34462;51.368;12.364;2023-12-04T12:22:11;1.80;99.90
15259;DHT22;34462;51.368;12.364;2023-12-04T12:24:40;1.80;99.90
15259;DHT22;34462;51.368;12.364;2023-12-04T12:27:08;1.80;99.90
15259;DHT22;34462;51.368;12.364;2023-12-04T12:29:36;1.80;99.90
15259;DHT22;34462;51.368;12.364;2023-12-04T12:32:06;1.70;99.90
15259;DHT22;34462;51.368;12.364;2023-12-04T12:34:35;1.70;99.90
15259;DHT22;34462;51.368;12.364;2023-12-04T12:37:04;1.70;99.90
15259;DHT22;34462;51.368;12.364;2023-12-04T12:39:33;1.60;99.90
15259;DHT22;34462;51.368;12.364;2023-12-04T12:42:02;1.70;99.90
15259;DHT22;34462;51.368;12.364;2023-12-04T12:44:37;1.70;99.90
15259;DHT22;34462;51.368;12.364;2023-12-04T12:47:08;1.70;99.90
15259;DHT22;34462;51.368;12.364;2023-12-04T12:49:38;1.60;99.90
15259;DHT22;34462;51.368;12.364;2023-12-04T12:52:09;1.60;99.90
15259;DHT22;34462;51.368;12.364;2023-12-04T12:54:38;1.60;99.90
15259;DHT22;34462;51.368;12.364;2023-12-04T12:57:08;1.60;99.90
15259;DHT22;34462;51.368;12.364;2023-12-04T12:59:38;1.60;99.90
15259;DHT22;34462;51.368;12.364;2023-12-04T13:02:08;1.60;99.90
15259;DHT22;34462;51.368;12.364;2023-12-04T13:04:37;1.60;99.90
15259;DHT22;34462;51.368;12.364;2023-12-04T13:07:08;1.60;99.90
15259;DHT22;34462;51.368;12.364;2023-12-04T13:09:37;1.60;99.90
15259;DHT22;34462;51.368;12.364;2023-12-04T13:12:06;1.60;99.90
15259;DHT22;34462;51.368;12.364;2023-12-04T13:14:36;1.50;99.90
15259;DHT22;34462;51.368;12.364;2023-12-04T13:17:07;1.40;99.90
15259;DHT22;34462;51.368;12.364;2023-12-04T13:19:37;1.40;99.90
15259;DHT22;34462;51.368;12.364;2023-12-04T13:22:05;1.40;99.90
15259;DHT22;34462;51.368;12.364;2023-12-04T13:24:34;1.30;99.90
15259;DHT22;34462;51.368;12.364;2023-12-04T13:27:02;1.20;99.90
15259;DHT22;34462;51.368;12.364;2023-12-04T13:29:31;1.20;99.90
15259;DHT22;34462;51.368;12.364;2023-12-04T13:31:59;1.20;99.90
15259;DHT22;34462;51.368;12.364;2023-12-04T13:34:29;1.20;99.90
15259;DHT22;34462;51.368;12.364;2023-12-04T13:36:58;1.20;99.90
15259;DHT22;34462;51.368;12.364;2023-12-04T13:39:26;1.20;99.90
15259;DHT22;34462;51.368;12.364;2023-12-04T13:42:14;1.10;99.90
15259;DHT22;34462;51.368;12.364;2023-12-04T13:45:00;1.10;99.90
15259;DHT22;34462;51.368;12.364;2023-12-04T13:47:30;1.10;99.90
15259;DHT22;34462;51.368;12.364;2023-12-04T13:49:59;1.10;99.90
15259;DHT22;34462;51.368;12.364;2023-12-04T13:52:28;1.10;99.90
15259;DHT22;34462;51.368;12.364;2023-12-04T13:55:00;1.10;99.90
15259;DHT22;34462;51.368;12.364;2023-12-04T13:57:37;1.10;99.90
15259;DHT22;34462;51.368;12.364;2023-12-04T14:00:21;1.10;99.90
15259;DHT22;34462;51.368;12.364;2023-12-04T14:02:50;1.10;99.90
15259;DHT22;34462;51.368;12.364;2023-12-04T14:05:22;1.10;99.90
15259;DHT22;34462;51.368;12.364;2023-12-04T14:07:51;1.10;99.90
15259;DHT22;34462;51.368;12.364;2023-12-04T14:10:20;1.10;99.90
15259;DHT22;34462;51.368;12.364;2023-12-04T14:12:48;1.30;99.90
15259;DHT22;34462;51.368;12.364;2023-12-04T14:15:17;1.10;99.90
15259;DHT22;34462;51.368;12.364;2023-12-04T14:17:45;1.10;99.90
15259;DHT22;34462;51.368;12.364;2023-12-04T14:20:14;1.10;99.90
15259;DHT22;34462;51.368;12.364;2023-12-04T14:22:46;1.10;99.90
15259;DHT22;34462;51.368;12.364;2023-12-04T14:25:14;1.00;99.90
15259;DHT22;34462;51.368;12.364;2023-12-04T14:27:42;1.10;99.90
15259;DHT22;34462;51.368;12.364;2023-12-04T14:30:12;1.10;99.90
15259;DHT22;34462;51.368;12.364;2023-12-04T14:32:40;1.10;99.90
15259;DHT22;34462;51.368;12.364;2023-12-04T14:35:14;1.10;99.90
15259;DHT22;34462;51.368;12.364;2023-12-04T14:37:43;1.20;99.90
15259;DHT22;34462;51.368;12.364;2023-12-04T14:40:13;1.20;99.90
15259;DHT22;34462;51.368;12.364;2023-12-04T14:42:43;1.10;99.90
15259;DHT22;34462;51.368;12.364;2023-12-04T14:45:12;1.10;99.90
15259;DHT22;34462;51.368;12.364;2023-12-04T14:47:40;1.00;99.90
15259;DHT22;34462;51.368;12.364;2023-12-04T14:50:09;1.00;99.90
15259;DHT22;34462;51.368;12.364;2023-12-04T14:52:38;1.00;99.90
15259;DHT22;34462;51.368;12.364;2023-12-04T14:55:14;0.90;99.90
15259;DHT22;34462;51.368;12.364;2023-12-04T14:58:22;1.10;99.90
15259;DHT22;34462;51.368;12.364;2023-12-04T15:01:05;0.90;99.90
15259;DHT22;34462;51.368;12.364;2023-12-04T15:03:51;0.90;99.90
15259;DHT22;34462;51.368;12.364;2023-12-04T15:06:36;0.90;99.90
15259;DHT22;34462;51.368;12.364;2023-12-04T15:09:26;0.90;99.90
15259;DHT22;34462;51.368;12.364;2023-12-04T15:12:31;0.90;99.90
15259;DHT22;34462;51.368;12.364;2023-12-04T15:15:19;0.70;99.90
15259;DHT22;34462;51.368;12.364;2023-12-04T15:18:03;0.80;99.90
15259;DHT22;34462;51.368;12.364;2023-12-04T15:20:45;0.80;99.90
15259;DHT22;34462;51.368;12.364;2023-12-04T15:23:14;0.70;99.90
15259;DHT22;34462;51.368;12.364;2023-12-04T15:25:41;0.70;99.90
15259;DHT22;34462;51.368;12.364;2023-12-04T15:28:11;0.70;99.90
15259;DHT22;34462;51.368;12.364;2023-12-04T15:30:40;0.70;99.90
15259;DHT22;34462;51.368;12.364;2023-12-04T15:33:11;0.70;99.90
15259;DHT22;34462;51.368;12.364;2023-12-04T15:35:39;0.70;99.90
15259;DHT22;34462;51.368;12.364;2023-12-04T15:38:08;0.70;99.90
15259;DHT22;34462;51.368;12.364;2023-12-04T15:40:35;0.80;99.90